Gardenville, PA (18926)

7:37 AM EST on December 07, 2016 (GMT -0500)
New Britan | | Change Station

Elev 505 ft 40.35 °N, 75.19 °W | Updated 17 seconds ago

Overcast
Overcast
36.1 °F
Feels Like 36 °F
N
2.7
Wind Variable Wind from NW

Today
High -- | Low -- °F
--% Chance of Precip.
Yesterday
High -- | Low -- °F
Precip. -- in
Pressure 29.95 in
Visibility 9.0 miles
Clouds Overcast 400 ft
Windchill 36 °F
Dew Point 34 °F
Humidity 93%
Rainfall 0.77 in
Snow Depth Not available.
7:10 AM 4:33 PM
First Quarter, 52% visible
SPECI KDYL 071215Z AUTO 33003KT 9SM OVC004 04/03 A2995 RMK AO2 T00390028
Pressure 29.95 in
Visibility 9.0 miles
Clouds Overcast 400 ft
Windchill 36 °F
Dew Point 34 °F
Humidity 93%
Rainfall 0.77 in
Snow Depth Not available.
7:10 AM 4:33 PM
First Quarter, 52% visible
SPECI KDYL 071215Z AUTO 33003KT 9SM OVC004 04/03 A2995 RMK AO2 T00390028

10-Day Weather Forecast

Almanac

Astronomy

Dec. 07, 2016 Rise Set
Actual Time
Civil Twilight
Nautical Twilight
Astronomical Twilight
Moon
Length of Visible Light
Length of Day
Tomorrow will be .
, % of the Moon is Illuminated

Today's Extremes

State Highs State Lows

Community

WunderPhotos

Upload Photos

1,956,111 photos uploaded!

WunderBlog® & News

Nearby

Air Quality

  Air Quality AQ Index Pollutant
Not available.

Snow Depth

Station Depth Elevation

Earthquake Activity

City Distance Mag. Time & Date
Minimum magnitude displayed is 2.5.

Coastal Water Temperatures

Place Temperature

Stations

Nearby Weather Stations

Station Location Temp. Windchill Dew Point Humidity Wind Precip. Elev Updated Type
                   

Watches & Warnings

There are currently no watches in effect.